To NAV CANADA Home Page Login to a new session Search on AWWS site Disclaimer Vers la page française équivalente Tips FAQ What's new on the site To the Forecasts and Observations / NOTAM section To "File a Flight Plan" website Publications and other links Update of the User's profile FIC Telephone Numbers My Weather Data Folder Route Weather Data Regional Weather Data Local Weather Data To the Forecasts and Observations / NOTAM section
Request Generated 04/24/2019 at 16:15:03 UTC . Weather information available at that time is displayed.

METAR/TAF

PANGNIRTUNG/NU    (show WxCam)

METAR CYXP 241600Z 26013KT 15SM FEW051 M17/M24 A3001 RMK SC1 SC TR SLP168=
METAR CYXP 241500Z 26013KT 15SM FEW051 M18/M23 A3002 RMK SC1 SLP172=
METAR CYXP 241400Z 25010KT 15SM FEW051 M20/M24 A3003 RMK SC1 SLP173=

TAF CYXP 241239Z 2413/2422 25008KT P6SM FEW050
RMK NXT FCST BY 241900Z=
Your time UTC time
Weather data provided by Environment Canada and NAV CANADA